sensor_id;sensor_type;location;lat;lon;timestamp;pressure;altitude;pressure_sealevel;temperature;humidity
79799;BME280;69283;48.024;11.090;2023-05-14T00:01:48;95279.34;;;9.88;83.54
79799;BME280;69283;48.024;11.090;2023-05-14T00:04:16;95282.16;;;9.92;83.87
79799;BME280;69283;48.024;11.090;2023-05-14T00:06:42;95284.41;;;9.90;83.64
79799;BME280;69283;48.024;11.090;2023-05-14T00:09:07;95285.88;;;9.87;84.14
79799;BME280;69283;48.024;11.090;2023-05-14T00:11:32;95283.50;;;9.86;84.27
79799;BME280;69283;48.024;11.090;2023-05-14T00:13:57;95280.47;;;9.87;84.21
79799;BME280;69283;48.024;11.090;2023-05-14T00:16:23;95286.66;;;9.88;83.82
79799;BME280;69283;48.024;11.090;2023-05-14T00:18:48;95288.59;;;9.87;83.96
79799;BME280;69283;48.024;11.090;2023-05-14T00:21:13;95286.66;;;9.88;84.50
79799;BME280;69283;48.024;11.090;2023-05-14T00:23:38;95271.66;;;9.90;83.89
79799;BME280;69283;48.024;11.090;2023-05-14T00:26:04;95280.59;;;9.91;84.10
79799;BME280;69283;48.024;11.090;2023-05-14T00:28:29;95279.66;;;9.87;84.32
79799;BME280;69283;48.024;11.090;2023-05-14T00:30:54;95275.84;;;9.88;84.68
79799;BME280;69283;48.024;11.090;2023-05-14T00:33:21;95275.84;;;9.88;84.07
79799;BME280;69283;48.024;11.090;2023-05-14T00:35:47;95272.00;;;9.89;84.32
79799;BME280;69283;48.024;11.090;2023-05-14T00:38:12;95272.47;;;9.91;84.10
79799;BME280;69283;48.024;11.090;2023-05-14T00:40:41;95277.19;;;9.94;84.10
79799;BME280;69283;48.024;11.090;2023-05-14T00:43:10;95270.22;;;9.93;84.34
79799;BME280;69283;48.024;11.090;2023-05-14T00:45:35;95273.81;;;9.97;84.08
79799;BME280;69283;48.024;11.090;2023-05-14T00:48:00;95274.16;;;9.95;84.31
79799;BME280;69283;48.024;11.090;2023-05-14T00:50:26;95270.22;;;9.93;85.13
79799;BME280;69283;48.024;11.090;2023-05-14T00:52:51;95276.75;;;9.92;83.96
79799;BME280;69283;48.024;11.090;2023-05-14T00:55:17;95268.28;;;9.93;84.37
79799;BME280;69283;48.024;11.090;2023-05-14T00:57:43;95262.88;;;9.93;84.57
79799;BME280;69283;48.024;11.090;2023-05-14T01:00:09;95265.72;;;9.97;84.11
79799;BME280;69283;48.024;11.090;2023-05-14T01:02:34;95260.75;;;9.99;84.71
79799;BME280;69283;48.024;11.090;2023-05-14T01:05:00;95259.16;;;9.98;84.80
79799;BME280;69283;48.024;11.090;2023-05-14T01:07:38;95264.56;;;9.98;84.98
79799;BME280;69283;48.024;11.090;2023-05-14T01:10:44;95256.47;;;9.98;84.92
79799;BME280;69283;48.024;11.090;2023-05-14T01:15:32;95250.59;;;9.96;84.71
79799;BME280;69283;48.024;11.090;2023-05-14T01:18:02;95245.97;;;9.96;84.68
79799;BME280;69283;48.024;11.090;2023-05-14T01:20:28;95252.97;;;9.97;84.58
79799;BME280;69283;48.024;11.090;2023-05-14T01:22:53;95242.91;;;9.98;85.06
79799;BME280;69283;48.024;11.090;2023-05-14T01:25:19;95249.47;;;9.97;85.24
79799;BME280;69283;48.024;11.090;2023-05-14T01:33:10;95247.53;;;9.97;85.29
79799;BME280;69283;48.024;11.090;2023-05-14T01:35:36;95239.75;;;9.96;85.27
79799;BME280;69283;48.024;11.090;2023-05-14T01:38:04;95244.72;;;9.94;85.89
79799;BME280;69283;48.024;11.090;2023-05-14T01:40:31;95242.81;;;9.94;85.26
79799;BME280;69283;48.024;11.090;2023-05-14T01:42:58;95244.28;;;9.92;85.85
79799;BME280;69283;48.024;11.090;2023-05-14T01:45:24;95235.34;;;9.91;85.98
79799;BME280;69283;48.024;11.090;2023-05-14T01:47:50;95241.09;;;9.90;85.87
79799;BME280;69283;48.024;11.090;2023-05-14T01:50:16;95241.78;;;9.87;85.91
79799;BME280;69283;48.024;11.090;2023-05-14T01:52:41;95236.03;;;9.88;85.61
79799;BME280;69283;48.024;11.090;2023-05-14T01:55:07;95235.25;;;9.88;85.67
79799;BME280;69283;48.024;11.090;2023-05-14T01:57:33;95236.47;;;9.90;85.69
79799;BME280;69283;48.024;11.090;2023-05-14T01:59:58;95234.13;;;9.89;86.17
79799;BME280;69283;48.024;11.090;2023-05-14T02:02:23;95224.88;;;9.90;85.96
79799;BME280;69283;48.024;11.090;2023-05-14T02:04:49;95228.25;;;9.87;86.45
79799;BME280;69283;48.024;11.090;2023-05-14T02:07:14;95228.25;;;9.87;86.14
79799;BME280;69283;48.024;11.090;2023-05-14T02:09:39;95220.91;;;9.87;86.69
79799;BME280;69283;48.024;11.090;2023-05-14T02:12:06;95223.28;;;9.89;86.81
79799;BME280;69283;48.024;11.090;2023-05-14T02:14:31;95217.41;;;9.87;86.75
79799;BME280;69283;48.024;11.090;2023-05-14T02:16:57;95210.09;;;9.87;87.16
79799;BME280;69283;48.024;11.090;2023-05-14T02:19:22;95217.19;;;9.92;86.36
79799;BME280;69283;48.024;11.090;2023-05-14T02:21:48;95206.25;;;9.88;87.22
79799;BME280;69283;48.024;11.090;2023-05-14T02:24:14;95213.25;;;9.89;87.51
79799;BME280;69283;48.024;11.090;2023-05-14T02:26:39;95216.28;;;9.88;86.86
79799;BME280;69283;48.024;11.090;2023-05-14T02:29:04;95211.34;;;9.90;87.19
79799;BME280;69283;48.024;11.090;2023-05-14T02:31:29;95217.88;;;9.89;87.52
79799;BME280;69283;48.024;11.090;2023-05-14T02:33:55;95215.16;;;9.89;87.65
79799;BME280;69283;48.024;11.090;2023-05-14T02:36:20;95220.59;;;9.89;88.63
79799;BME280;69283;48.024;11.090;2023-05-14T02:38:45;95215.97;;;9.89;87.57
79799;BME280;69283;48.024;11.090;2023-05-14T02:41:11;95212.13;;;9.90;87.84
79799;BME280;69283;48.024;11.090;2023-05-14T02:43:36;95212.47;;;9.89;87.71
79799;BME280;69283;48.024;11.090;2023-05-14T02:46:01;95210.53;;;9.89;88.35
79799;BME280;69283;48.024;11.090;2023-05-14T02:48:27;95214.84;;;9.90;88.32
79799;BME280;69283;48.024;11.090;2023-05-14T02:50:52;95220.38;;;9.94;87.01
79799;BME280;69283;48.024;11.090;2023-05-14T02:53:17;95210.22;;;9.91;87.37
79799;BME280;69283;48.024;11.090;2023-05-14T02:55:42;95216.84;;;9.81;87.25
79799;BME280;69283;48.024;11.090;2023-05-14T02:58:08;95212.22;;;9.82;87.17
79799;BME280;69283;48.024;11.090;2023-05-14T03:00:34;95211.75;;;9.80;87.46
79799;BME280;69283;48.024;11.090;2023-05-14T03:02:59;95200.28;;;9.83;87.53
79799;BME280;69283;48.024;11.090;2023-05-14T03:05:25;95192.69;;;9.76;86.40
79799;BME280;69283;48.024;11.090;2023-05-14T03:07:50;95202.94;;;9.70;87.15
79799;BME280;69283;48.024;11.090;2023-05-14T03:10:16;95203.16;;;9.65;86.22
79799;BME280;69283;48.024;11.090;2023-05-14T03:12:41;95198.72;;;9.61;86.38
79799;BME280;69283;48.024;11.090;2023-05-14T03:15:07;95209.22;;;9.62;86.67
79799;BME280;69283;48.024;11.090;2023-05-14T03:17:32;95205.75;;;9.62;87.11
79799;BME280;69283;48.024;11.090;2023-05-14T03:19:58;95202.34;;;9.65;86.77
79799;BME280;69283;48.024;11.090;2023-05-14T03:22:23;95200.97;;;9.59;87.60
79799;BME280;69283;48.024;11.090;2023-05-14T03:24:48;95206.94;;;9.52;87.54
79799;BME280;69283;48.024;11.090;2023-05-14T03:27:14;95211.88;;;9.50;87.42
79799;BME280;69283;48.024;11.090;2023-05-14T03:29:39;95206.94;;;9.52;88.14
79799;BME280;69283;48.024;11.090;2023-05-14T03:32:05;95201.06;;;9.50;87.19
79799;BME280;69283;48.024;11.090;2023-05-14T03:34:30;95202.50;;;9.48;88.08
79799;BME280;69283;48.024;11.090;2023-05-14T03:36:56;95200.16;;;9.46;87.72
79799;BME280;69283;48.024;11.090;2023-05-14T03:39:21;95204.44;;;9.47;87.80
79799;BME280;69283;48.024;11.090;2023-05-14T03:41:47;95201.41;;;9.49;87.91
79799;BME280;69283;48.024;11.090;2023-05-14T03:44:12;95201.97;;;9.54;88.00
79799;BME280;69283;48.024;11.090;2023-05-14T03:46:37;95197.00;;;9.56;87.93
79799;BME280;69283;48.024;11.090;2023-05-14T03:49:03;95193.41;;;9.52;87.32
79799;BME280;69283;48.024;11.090;2023-05-14T03:51:28;95192.28;;;9.53;88.08
79799;BME280;69283;48.024;11.090;2023-05-14T03:53:53;95199.94;;;9.51;87.85
79799;BME280;69283;48.024;11.090;2023-05-14T03:56:19;95190.56;;;9.49;88.21
79799;BME280;69283;48.024;11.090;2023-05-14T03:58:44;95200.16;;;9.46;88.25
79799;BME280;69283;48.024;11.090;2023-05-14T04:01:10;95197.31;;;9.42;88.33
79799;BME280;69283;48.024;11.090;2023-05-14T04:03:35;95195.41;;;9.43;88.24
79799;BME280;69283;48.024;11.090;2023-05-14T04:06:00;95197.16;;;9.39;88.95
79799;BME280;69283;48.024;11.090;2023-05-14T04:08:26;95199.53;;;9.40;89.00
79799;BME280;69283;48.024;11.090;2023-05-14T04:10:51;95192.88;;;9.38;88.96
79799;BME280;69283;48.024;11.090;2023-05-14T04:13:16;95197.84;;;9.36;88.47
79799;BME280;69283;48.024;11.090;2023-05-14T04:15:41;95199.41;;;9.37;88.62
79799;BME280;69283;48.024;11.090;2023-05-14T04:18:07;95201.44;;;9.40;88.81
79799;BME280;69283;48.024;11.090;2023-05-14T04:20:32;95192.09;;;9.37;88.34
79799;BME280;69283;48.024;11.090;2023-05-14T04:22:57;95191.63;;;9.35;88.25
79799;BME280;69283;48.024;11.090;2023-05-14T04:25:23;95191.63;;;9.35;88.70
79799;BME280;69283;48.024;11.090;2023-05-14T04:27:48;95199.53;;;9.40;88.26
79799;BME280;69283;48.024;11.090;2023-05-14T04:30:14;95190.50;;;9.36;87.93
79799;BME280;69283;48.024;11.090;2023-05-14T04:32:39;95192.44;;;9.36;88.25
79799;BME280;69283;48.024;11.090;2023-05-14T04:35:05;95201.00;;;9.38;88.11
79799;BME280;69283;48.024;11.090;2023-05-14T04:37:30;95196.00;;;9.28;88.66
79799;BME280;69283;48.024;11.090;2023-05-14T04:39:57;95203.00;;;9.29;88.12
79799;BME280;69283;48.024;11.090;2023-05-14T04:42:22;95195.09;;;9.24;88.86
79799;BME280;69283;48.024;11.090;2023-05-14T04:44:48;95192.50;;;9.27;89.00
79799;BME280;69283;48.024;11.090;2023-05-14T04:47:13;95198.59;;;9.24;88.22
79799;BME280;69283;48.024;11.090;2023-05-14T04:49:39;95197.78;;;9.24;88.80
79799;BME280;69283;48.024;11.090;2023-05-14T04:52:05;95196.22;;;9.23;88.62
79799;BME280;69283;48.024;11.090;2023-05-14T04:54:30;95200.97;;;9.26;88.16
79799;BME280;69283;48.024;11.090;2023-05-14T04:56:56;95202.22;;;9.28;88.35
79799;BME280;69283;48.024;11.090;2023-05-14T04:59:21;95200.63;;;9.27;88.49
79799;BME280;69283;48.024;11.090;2023-05-14T05:01:46;95195.91;;;9.36;88.19
79799;BME280;69283;48.024;11.090;2023-05-14T05:04:12;95195.25;;;9.39;87.23
79799;BME280;69283;48.024;11.090;2023-05-14T05:06:37;95192.88;;;9.38;88.12
79799;BME280;69283;48.024;11.090;2023-05-14T05:09:02;95199.53;;;9.40;87.69
79799;BME280;69283;48.024;11.090;2023-05-14T05:11:28;95191.75;;;9.39;88.27
79799;BME280;69283;48.024;11.090;2023-05-14T05:13:53;95190.63;;;9.40;87.89
79799;BME280;69283;48.024;11.090;2023-05-14T05:16:19;95197.63;;;9.41;87.95
79799;BME280;69283;48.024;11.090;2023-05-14T05:18:44;95185.22;;;9.40;88.10
79799;BME280;69283;48.024;11.090;2023-05-14T05:21:09;95190.34;;;9.41;87.74
79799;BME280;69283;48.024;11.090;2023-05-14T05:23:35;95199.22;;;9.42;88.58
79799;BME280;69283;48.024;11.090;2023-05-14T05:26:00;95185.22;;;9.40;88.11
79799;BME280;69283;48.024;11.090;2023-05-14T05:28:25;95197.63;;;9.41;88.06
79799;BME280;69283;48.024;11.090;2023-05-14T05:30:51;95189.50;;;9.41;88.18
79799;BME280;69283;48.024;11.090;2023-05-14T05:33:17;95198.44;;;9.41;87.90
79799;BME280;69283;48.024;11.090;2023-05-14T05:35:42;95201.28;;;9.45;88.00
79799;BME280;69283;48.024;11.090;2023-05-14T05:38:08;95206.22;;;9.43;87.98
79799;BME280;69283;48.024;11.090;2023-05-14T05:40:34;95209.09;;;9.38;88.17
79799;BME280;69283;48.024;11.090;2023-05-14T05:42:59;95202.91;;;9.37;87.99
79799;BME280;69283;48.024;11.090;2023-05-14T05:45:24;95205.56;;;9.46;88.00
79799;BME280;69283;48.024;11.090;2023-05-14T05:47:49;95207.81;;;9.44;88.21
79799;BME280;69283;48.024;11.090;2023-05-14T05:50:15;95200.16;;;9.46;87.36
79799;BME280;69283;48.024;11.090;2023-05-14T05:52:40;95207.81;;;9.44;87.67
79799;BME280;69283;48.024;11.090;2023-05-14T05:55:06;95204.66;;;9.42;87.95
79799;BME280;69283;48.024;11.090;2023-05-14T05:57:31;95209.25;;;9.41;87.41
79799;BME280;69283;48.024;11.090;2023-05-14T05:59:56;95203.84;;;9.41;87.28
79799;BME280;69283;48.024;11.090;2023-05-14T06:02:22;95203.63;;;9.47;87.46
79799;BME280;69283;48.024;11.090;2023-05-14T06:04:47;95210.50;;;9.44;86.85
79799;BME280;69283;48.024;11.090;2023-05-14T06:07:12;95209.09;;;9.38;86.39
79799;BME280;69283;48.024;11.090;2023-05-14T06:09:38;95206.88;;;9.40;86.75
79799;BME280;69283;48.024;11.090;2023-05-14T06:12:03;95210.44;;;9.32;85.97
79799;BME280;69283;48.024;11.090;2023-05-14T06:14:29;95214.28;;;9.31;85.71
79799;BME280;69283;48.024;11.090;2023-05-14T06:16:54;95208.75;;;9.27;85.95
79799;BME280;69283;48.024;11.090;2023-05-14T06:19:19;95204.13;;;9.28;86.34
79799;BME280;69283;48.024;11.090;2023-05-14T06:21:44;95214.16;;;9.27;85.80
79799;BME280;69283;48.024;11.090;2023-05-14T06:24:10;95208.16;;;9.22;86.68
79799;BME280;69283;48.024;11.090;2023-05-14T06:26:35;95208.88;;;9.31;86.66
79799;BME280;69283;48.024;11.090;2023-05-14T06:29:00;95207.41;;;9.33;86.04
79799;BME280;69283;48.024;11.090;2023-05-14T06:31:25;95204.56;;;9.30;86.31
79799;BME280;69283;48.024;11.090;2023-05-14T06:33:51;95207.75;;;9.32;86.28
79799;BME280;69283;48.024;11.090;2023-05-14T06:36:16;95204.38;;;9.35;86.38
79799;BME280;69283;48.024;11.090;2023-05-14T06:38:41;95205.03;;;9.32;87.04
79799;BME280;69283;48.024;11.090;2023-05-14T06:41:06;95202.66;;;9.30;87.08
79799;BME280;69283;48.024;11.090;2023-05-14T06:43:32;95198.97;;;9.35;86.55
79799;BME280;69283;48.024;11.090;2023-05-14T06:45:57;95208.31;;;9.37;86.23
79799;BME280;69283;48.024;11.090;2023-05-14T06:48:22;95209.44;;;9.36;86.53
79799;BME280;69283;48.024;11.090;2023-05-14T06:50:48;95201.00;;;9.38;87.29
79799;BME280;69283;48.024;11.090;2023-05-14T06:53:13;95206.22;;;9.43;86.84
79799;BME280;69283;48.024;11.090;2023-05-14T06:55:39;95204.56;;;9.51;86.72
79799;BME280;69283;48.024;11.090;2023-05-14T06:58:08;95209.41;;;9.57;86.25
79799;BME280;69283;48.024;11.090;2023-05-14T07:00:33;95206.72;;;9.57;86.63
79799;BME280;69283;48.024;11.090;2023-05-14T07:02:59;95209.63;;;9.52;86.59
79799;BME280;69283;48.024;11.090;2023-05-14T07:05:24;95200.38;;;9.53;86.75
79799;BME280;69283;48.024;11.090;2023-05-14T07:07:50;95199.94;;;9.51;86.43
79799;BME280;69283;48.024;11.090;2023-05-14T07:10:15;95200.72;;;9.52;86.20
79799;BME280;69283;48.024;11.090;2023-05-14T07:12:41;95196.56;;;9.54;86.21
79799;BME280;69283;48.024;11.090;2023-05-14T07:15:06;95211.00;;;9.58;86.20
79799;BME280;69283;48.024;11.090;2023-05-14T07:17:32;95200.97;;;9.59;85.27
79799;BME280;69283;48.024;11.090;2023-05-14T07:19:57;95199.84;;;9.60;85.63
79799;BME280;69283;48.024;11.090;2023-05-14T07:22:23;95205.25;;;9.60;85.07
79799;BME280;69283;48.024;11.090;2023-05-14T07:24:48;95206.19;;;9.64;85.63
79799;BME280;69283;48.024;11.090;2023-05-14T07:27:14;95200.09;;;9.67;85.84
79799;BME280;69283;48.024;11.090;2023-05-14T07:29:40;95197.06;;;9.68;85.01
79799;BME280;69283;48.024;11.090;2023-05-14T07:32:06;95199.56;;;9.73;84.82
79799;BME280;69283;48.024;11.090;2023-05-14T07:34:31;95193.25;;;9.69;84.84
79799;BME280;69283;48.024;11.090;2023-05-14T07:36:56;95193.25;;;9.69;84.99
79799;BME280;69283;48.024;11.090;2023-05-14T07:39:21;95194.47;;;9.72;85.57
79799;BME280;69283;48.024;11.090;2023-05-14T07:41:47;95182.88;;;9.71;85.15
79799;BME280;69283;48.024;11.090;2023-05-14T07:44:14;95187.94;;;9.73;85.63
79799;BME280;69283;48.024;11.090;2023-05-14T07:46:39;95184.13;;;9.74;86.17
79799;BME280;69283;48.024;11.090;2023-05-14T07:49:05;95171.81;;;9.76;86.85
79799;BME280;69283;48.024;11.090;2023-05-14T07:51:30;95177.50;;;9.84;86.20
79799;BME280;69283;48.024;11.090;2023-05-14T07:53:57;95181.44;;;9.86;86.88
79799;BME280;69283;48.024;11.090;2023-05-14T07:56:22;95170.28;;;9.88;85.75
79799;BME280;69283;48.024;11.090;2023-05-14T07:58:49;95172.53;;;9.98;87.70
79799;BME280;69283;48.024;11.090;2023-05-14T08:01:14;95173.59;;;10.05;87.07
79799;BME280;69283;48.024;11.090;2023-05-14T08:03:40;95171.34;;;10.07;85.90
79799;BME280;69283;48.024;11.090;2023-05-14T08:06:05;95173.69;;;10.09;84.88
79799;BME280;69283;48.024;11.090;2023-05-14T08:08:30;95172.34;;;10.15;84.97
79799;BME280;69283;48.024;11.090;2023-05-14T08:10:56;95171.84;;;10.22;85.91
79799;BME280;69283;48.024;11.090;2023-05-14T08:13:21;95173.97;;;10.28;85.39
79799;BME280;69283;48.024;11.090;2023-05-14T08:15:46;95167.66;;;10.36;83.63
79799;BME280;69283;48.024;11.090;2023-05-14T08:18:12;95167.31;;;10.38;84.35
79799;BME280;69283;48.024;11.090;2023-05-14T08:20:37;95168.53;;;10.41;83.87
79799;BME280;69283;48.024;11.090;2023-05-14T08:23:02;95176.47;;;10.46;83.07
79799;BME280;69283;48.024;11.090;2023-05-14T08:25:28;95170.69;;;10.35;82.72
79799;BME280;69283;48.024;11.090;2023-05-14T08:27:54;95170.94;;;10.30;83.09
79799;BME280;69283;48.024;11.090;2023-05-14T08:30:19;95172.16;;;10.32;84.24
79799;BME280;69283;48.024;11.090;2023-05-14T08:32:45;95174.44;;;10.30;83.81
79799;BME280;69283;48.024;11.090;2023-05-14T08:35:11;95166.53;;;10.25;83.34
79799;BME280;69283;48.024;11.090;2023-05-14T08:37:36;95168.91;;;10.27;83.57
79799;BME280;69283;48.024;11.090;2023-05-14T08:40:02;95166.19;;;10.27;82.66
79799;BME280;69283;48.024;11.090;2023-05-14T08:42:27;95171.25;;;10.28;82.82
79799;BME280;69283;48.024;11.090;2023-05-14T08:44:59;95164.63;;;10.26;82.53
79799;BME280;69283;48.024;11.090;2023-05-14T08:47:25;95168.78;;;10.23;83.04
79799;BME280;69283;48.024;11.090;2023-05-14T08:49:56;95164.16;;;10.24;83.09
79799;BME280;69283;48.024;11.090;2023-05-14T08:52:22;95160.53;;;10.32;83.01
79799;BME280;69283;48.024;11.090;2023-05-14T08:54:49;95159.53;;;10.36;82.51
79799;BME280;69283;48.024;11.090;2023-05-14T08:57:16;95155.22;;;10.35;82.45
79799;BME280;69283;48.024;11.090;2023-05-14T08:59:42;95158.97;;;10.43;82.21
79799;BME280;69283;48.024;11.090;2023-05-14T09:02:08;95159.53;;;10.49;81.98
79799;BME280;69283;48.024;11.090;2023-05-14T09:04:35;95150.59;;;10.60;81.45
79799;BME280;69283;48.024;11.090;2023-05-14T09:07:01;95148.22;;;10.59;80.24
79799;BME280;69283;48.024;11.090;2023-05-14T09:09:28;95157.72;;;10.65;80.21
79799;BME280;69283;48.024;11.090;2023-05-14T09:11:53;95152.75;;;10.67;79.95
79799;BME280;69283;48.024;11.090;2023-05-14T09:14:19;95152.84;;;10.71;80.13
79799;BME280;69283;48.024;11.090;2023-05-14T09:16:47;95150.69;;;10.76;79.31
79799;BME280;69283;48.024;11.090;2023-05-14T09:19:13;95154.97;;;10.77;79.59
79799;BME280;69283;48.024;11.090;2023-05-14T09:21:40;95150.00;;;10.79;79.45
79799;BME280;69283;48.024;11.090;2023-05-14T09:24:06;95151.91;;;10.79;79.84
79799;BME280;69283;48.024;11.090;2023-05-14T09:26:33;95155.06;;;10.81;81.06
79799;BME280;69283;48.024;11.090;2023-05-14T09:28:59;95153.97;;;10.82;80.21
79799;BME280;69283;48.024;11.090;2023-05-14T09:31:26;95150.22;;;10.74;80.30
79799;BME280;69283;48.024;11.090;2023-05-14T09:33:53;95156.53;;;10.78;80.30
79799;BME280;69283;48.024;11.090;2023-05-14T09:36:18;95154.66;;;10.66;80.95
79799;BME280;69283;48.024;11.090;2023-05-14T09:38:44;95159.84;;;10.59;81.34
79799;BME280;69283;48.024;11.090;2023-05-14T09:41:09;95157.59;;;10.61;81.08
79799;BME280;69283;48.024;11.090;2023-05-14T09:43:34;95154.56;;;10.63;81.38
79799;BME280;69283;48.024;11.090;2023-05-14T09:46:00;95156.25;;;10.68;81.91
79799;BME280;69283;48.024;11.090;2023-05-14T09:48:25;95157.47;;;10.70;81.28
79799;BME280;69283;48.024;11.090;2023-05-14T09:50:50;95159.41;;;10.70;80.72
79799;BME280;69283;48.024;11.090;2023-05-14T09:53:16;95160.06;;;10.66;80.84
79799;BME280;69283;48.024;11.090;2023-05-14T09:55:43;95155.91;;;10.57;81.54
79799;BME280;69283;48.024;11.090;2023-05-14T09:58:09;95149.00;;;10.59;81.95
79799;BME280;69283;48.024;11.090;2023-05-14T10:00:36;95152.63;;;10.63;81.50
79799;BME280;69283;48.024;11.090;2023-05-14T10:03:05;95151.59;;;10.68;81.54
79799;BME280;69283;48.024;11.090;2023-05-14T10:05:36;95148.44;;;10.66;81.18
79799;BME280;69283;48.024;11.090;2023-05-14T10:08:21;95143.03;;;10.66;81.18
79799;BME280;69283;48.024;11.090;2023-05-14T10:10:50;95149.00;;;10.72;80.43
79799;BME280;69283;48.024;11.090;2023-05-14T10:13:20;95148.31;;;10.75;80.87
79799;BME280;69283;48.024;11.090;2023-05-14T10:15:48;95149.78;;;10.84;80.70
79799;BME280;69283;48.024;11.090;2023-05-14T10:18:17;95145.34;;;10.92;80.86
79799;BME280;69283;48.024;11.090;2023-05-14T10:20:46;95146.03;;;10.89;80.51
79799;BME280;69283;48.024;11.090;2023-05-14T10:23:12;95156.78;;;10.85;79.72
79799;BME280;69283;48.024;11.090;2023-05-14T10:25:38;95154.97;;;10.89;79.76
79799;BME280;69283;48.024;11.090;2023-05-14T10:28:04;95159.69;;;10.80;79.73
79799;BME280;69283;48.024;11.090;2023-05-14T10:30:30;95154.53;;;10.75;80.61
79799;BME280;69283;48.024;11.090;2023-05-14T10:33:10;95157.72;;;10.65;80.29
79799;BME280;69283;48.024;11.090;2023-05-14T10:35:54;95157.72;;;10.65;81.17
79799;BME280;69283;48.024;11.090;2023-05-14T10:38:35;95154.31;;;10.68;81.36
79799;BME280;69283;48.024;11.090;2023-05-14T10:41:01;95158.41;;;10.62;81.49
79799;BME280;69283;48.024;11.090;2023-05-14T10:43:28;95152.28;;;10.53;81.37
79799;BME280;69283;48.024;11.090;2023-05-14T10:45:55;95152.53;;;10.48;81.69
79799;BME280;69283;48.024;11.090;2023-05-14T10:48:21;95155.59;;;10.46;81.15
79799;BME280;69283;48.024;11.090;2023-05-14T10:50:47;95145.97;;;10.49;81.55
79799;BME280;69283;48.024;11.090;2023-05-14T10:53:15;95148.69;;;10.49;81.59
79799;BME280;69283;48.024;11.090;2023-05-14T10:55:41;95159.06;;;10.59;81.30
79799;BME280;69283;48.024;11.090;2023-05-14T10:58:09;95147.78;;;10.57;81.27
79799;BME280;69283;48.024;11.090;2023-05-14T11:00:35;95151.50;;;10.64;80.33
79799;BME280;69283;48.024;11.090;2023-05-14T11:03:02;95145.50;;;10.71;80.15
79799;BME280;69283;48.024;11.090;2023-05-14T11:05:28;95147.97;;;10.76;80.16
79799;BME280;69283;48.024;11.090;2023-05-14T11:07:56;95135.31;;;10.80;79.29
79799;BME280;69283;48.024;11.090;2023-05-14T11:10:21;95140.28;;;10.90;80.21
79799;BME280;69283;48.024;11.090;2023-05-14T11:12:49;95139.78;;;11.01;79.16
79799;BME280;69283;48.024;11.090;2023-05-14T11:15:21;95131.53;;;10.97;78.81
79799;BME280;69283;48.024;11.090;2023-05-14T11:17:48;95134.34;;;11.01;78.79
79799;BME280;69283;48.024;11.090;2023-05-14T11:20:13;95129.94;;;11.08;78.50
79799;BME280;69283;48.024;11.090;2023-05-14T11:22:40;95127.56;;;11.07;78.30
79799;BME280;69283;48.024;11.090;2023-05-14T11:25:07;95122.59;;;11.09;77.49
79799;BME280;69283;48.024;11.090;2023-05-14T11:27:34;95122.09;;;11.19;78.75
79799;BME280;69283;48.024;11.090;2023-05-14T11:30:00;95122.75;;;11.28;77.41
79799;BME280;69283;48.024;11.090;2023-05-14T11:32:25;95115.59;;;11.36;76.28
79799;BME280;69283;48.024;11.090;2023-05-14T11:34:54;95111.94;;;11.44;76.28
79799;BME280;69283;48.024;11.090;2023-05-14T11:37:19;95107.75;;;11.46;76.39
79799;BME280;69283;48.024;11.090;2023-05-14T11:39:53;95115.00;;;11.42;76.53
79799;BME280;69283;48.024;11.090;2023-05-14T11:42:18;95116.38;;;11.36;76.38
79799;BME280;69283;48.024;11.090;2023-05-14T11:44:46;95120.91;;;11.32;76.95
79799;BME280;69283;48.024;11.090;2023-05-14T11:47:13;95111.56;;;11.30;76.96
79799;BME280;69283;48.024;11.090;2023-05-14T11:49:38;95114.31;;;11.17;77.23
79799;BME280;69283;48.024;11.090;2023-05-14T11:52:05;95115.59;;;11.08;77.47
79799;BME280;69283;48.024;11.090;2023-05-14T11:54:32;95108.16;;;11.05;78.22
79799;BME280;69283;48.024;11.090;2023-05-14T11:56:59;95109.72;;;11.06;78.81
79799;BME280;69283;48.024;11.090;2023-05-14T11:59:27;95106.50;;;11.16;78.15
79799;BME280;69283;48.024;11.090;2023-05-14T12:01:53;95097.34;;;11.20;77.65
79799;BME280;69283;48.024;11.090;2023-05-14T12:04:19;95100.34;;;11.31;76.87
79799;BME280;69283;48.024;11.090;2023-05-14T12:06:51;95099.16;;;11.44;76.41
79799;BME280;69283;48.024;11.090;2023-05-14T12:09:17;95095.22;;;11.57;74.60
79799;BME280;69283;48.024;11.090;2023-05-14T12:11:44;95090.53;;;11.70;74.72
79799;BME280;69283;48.024;11.090;2023-05-14T12:14:14;95093.34;;;11.74;74.83
79799;BME280;69283;48.024;11.090;2023-05-14T12:16:40;95091.84;;;11.76;75.15
79799;BME280;69283;48.024;11.090;2023-05-14T12:19:07;95093.41;;;11.77;74.90
79799;BME280;69283;48.024;11.090;2023-05-14T12:21:33;95095.22;;;11.85;74.89
79799;BME280;69283;48.024;11.090;2023-05-14T12:23:59;95087.59;;;11.91;73.75
79799;BME280;69283;48.024;11.090;2023-05-14T12:26:25;95087.16;;;12.05;73.52
79799;BME280;69283;48.024;11.090;2023-05-14T12:28:59;95080.16;;;12.04;73.24
79799;BME280;69283;48.024;11.090;2023-05-14T12:31:32;95073.75;;;11.96;73.14
79799;BME280;69283;48.024;11.090;2023-05-14T12:33:58;95084.81;;;12.03;73.95
79799;BME280;69283;48.024;11.090;2023-05-14T12:36:23;95082.53;;;12.05;72.96
79799;BME280;69283;48.024;11.090;2023-05-14T12:38:49;95077.94;;;12.09;73.26
79799;BME280;69283;48.024;11.090;2023-05-14T12:41:15;95078.47;;;12.15;72.62
79799;BME280;69283;48.024;11.090;2023-05-14T12:43:46;95078.97;;;12.21;72.83
79799;BME280;69283;48.024;11.090;2023-05-14T12:46:11;95068.75;;;12.14;72.33
79799;BME280;69283;48.024;11.090;2023-05-14T12:48:37;95074.25;;;12.17;72.99
79799;BME280;69283;48.024;11.090;2023-05-14T12:51:02;95076.00;;;12.26;71.77
79799;BME280;69283;48.024;11.090;2023-05-14T12:53:27;95074.09;;;12.10;70.76
79799;BME280;69283;48.024;11.090;2023-05-14T12:55:53;95075.81;;;12.18;71.31
79799;BME280;69283;48.024;11.090;2023-05-14T12:58:19;95076.97;;;12.17;70.16